ROMMA est une association bénévole à but non lucratif. Votre soutien est indispensable : ADHERER à ROMMA ou FAIRE un DON

Crest - (26, Drôme)

Vallée de la Drôme (315 m)   Longitude: 5°2' E   Latitude: 44°44' N Station partenaire n°62
 

Détail journalier du     <<     >>

Température Precipitation Humidité Pression Vent Dir Rafale Dir. rafale Ensol.
Heure (°C) (mm) (%) (hPa) (km/h) (km/h) (min)
01:00 18.806510147SSO16S0
02:00 18.406510145SSO13S0
03:00 16.607210134S13SSE0
04:00 16.807210133SSO6NNO0
05:00 15.707510132SSO10SSO0
06:00 15.107910131SSE6SSE0
07:00 14.308310131SSE5SE0
08:00 15.508010141SE8SE0
09:00 17.807210143ESE8NE23
10:00 21.106310148S23SSO57
11:00 23.6045101412SSO29SSO60
12:00 24.7039101316SSO35NNO60
13:00 25.6039101318NE35NE60
14:00 26.5036101318NE39SSO60
15:00 27.3031101319NE42NNO60
16:00 28.1028101320NE45NE60
17:00 28.0027101319NE39NE60
18:00 27.6029101220NE44NE60
19:00 27.0028101221NE45NE60
20:00 25.8032101317NE34NE29
21:00 24.8033101315NE31NE0
22:00 24.4034101315NE35ENE0
23:00 24.3033101413NE24NE0
minuit 21.704710147SSO18NNO0

Graphique du 02-08-2019

 

Serveur OMMA